sensor_id;sensor_type;location;lat;lon;timestamp;P1;durP1;ratioP1;P2;durP2;ratioP2
65182;SDS011;51771;51.068;-1.780;2023-05-18T00:01:27;4.90;;;1.80;;
65182;SDS011;51771;51.068;-1.780;2023-05-18T00:03:54;5.05;;;1.73;;
65182;SDS011;51771;51.068;-1.780;2023-05-18T00:06:19;3.60;;;1.38;;
65182;SDS011;51771;51.068;-1.780;2023-05-18T00:08:46;3.60;;;1.30;;
65182;SDS011;51771;51.068;-1.780;2023-05-18T00:11:11;7.97;;;1.93;;
65182;SDS011;51771;51.068;-1.780;2023-05-18T00:13:36;3.67;;;1.20;;
65182;SDS011;51771;51.068;-1.780;2023-05-18T00:16:02;6.63;;;1.63;;
65182;SDS011;51771;51.068;-1.780;2023-05-18T00:18:27;6.77;;;2.00;;
65182;SDS011;51771;51.068;-1.780;2023-05-18T00:20:52;6.13;;;1.80;;
65182;SDS011;51771;51.068;-1.780;2023-05-18T00:23:25;8.20;;;2.70;;
65182;SDS011;51771;51.068;-1.780;2023-05-18T00:25:50;5.80;;;2.05;;
65182;SDS011;51771;51.068;-1.780;2023-05-18T00:28:15;5.80;;;1.93;;
65182;SDS011;51771;51.068;-1.780;2023-05-18T00:30:41;6.07;;;2.20;;
65182;SDS011;51771;51.068;-1.780;2023-05-18T00:33:06;6.57;;;1.80;;
65182;SDS011;51771;51.068;-1.780;2023-05-18T00:35:38;7.97;;;2.70;;
65182;SDS011;51771;51.068;-1.780;2023-05-18T00:38:03;6.82;;;2.45;;
65182;SDS011;51771;51.068;-1.780;2023-05-18T00:40:28;4.93;;;1.60;;
65182;SDS011;51771;51.068;-1.780;2023-05-18T00:42:54;4.55;;;2.10;;
65182;SDS011;51771;51.068;-1.780;2023-05-18T00:45:19;5.80;;;2.65;;
65182;SDS011;51771;51.068;-1.780;2023-05-18T00:47:44;7.43;;;2.30;;
65182;SDS011;51771;51.068;-1.780;2023-05-18T00:50:11;5.22;;;1.90;;
65182;SDS011;51771;51.068;-1.780;2023-05-18T00:52:36;4.35;;;1.80;;
65182;SDS011;51771;51.068;-1.780;2023-05-18T00:55:02;7.38;;;2.33;;
65182;SDS011;51771;51.068;-1.780;2023-05-18T00:57:28;6.13;;;1.92;;
65182;SDS011;51771;51.068;-1.780;2023-05-18T00:59:53;5.78;;;2.10;;
65182;SDS011;51771;51.068;-1.780;2023-05-18T01:02:20;6.40;;;2.15;;
65182;SDS011;51771;51.068;-1.780;2023-05-18T01:04:46;6.30;;;2.30;;
65182;SDS011;51771;51.068;-1.780;2023-05-18T01:07:11;5.83;;;2.00;;
65182;SDS011;51771;51.068;-1.780;2023-05-18T01:09:40;7.65;;;2.50;;
65182;SDS011;51771;51.068;-1.780;2023-05-18T01:12:09;6.80;;;2.22;;
65182;SDS011;51771;51.068;-1.780;2023-05-18T01:19:54;5.00;;;1.83;;
65182;SDS011;51771;51.068;-1.780;2023-05-18T01:24:56;4.00;;;1.92;;
65182;SDS011;51771;51.068;-1.780;2023-05-18T01:27:22;4.22;;;1.88;;
65182;SDS011;51771;51.068;-1.780;2023-05-18T01:30:01;5.78;;;2.00;;
65182;SDS011;51771;51.068;-1.780;2023-05-18T01:32:27;5.22;;;1.65;;
65182;SDS011;51771;51.068;-1.780;2023-05-18T01:34:52;6.43;;;2.38;;
65182;SDS011;51771;51.068;-1.780;2023-05-18T01:37:17;4.00;;;1.90;;
65182;SDS011;51771;51.068;-1.780;2023-05-18T01:39:42;7.40;;;2.10;;
65182;SDS011;51771;51.068;-1.780;2023-05-18T01:42:12;8.90;;;2.08;;
65182;SDS011;51771;51.068;-1.780;2023-05-18T01:44:40;6.10;;;2.20;;
65182;SDS011;51771;51.068;-1.780;2023-05-18T01:54:32;3.72;;;1.52;;
65182;SDS011;51771;51.068;-1.780;2023-05-18T01:56:57;4.70;;;1.85;;
65182;SDS011;51771;51.068;-1.780;2023-05-18T01:59:23;7.53;;;2.50;;
65182;SDS011;51771;51.068;-1.780;2023-05-18T02:01:48;6.07;;;2.42;;
65182;SDS011;51771;51.068;-1.780;2023-05-18T02:04:13;6.03;;;1.73;;
65182;SDS011;51771;51.068;-1.780;2023-05-18T02:06:39;8.65;;;2.05;;
65182;SDS011;51771;51.068;-1.780;2023-05-18T02:09:04;5.83;;;2.27;;
65182;SDS011;51771;51.068;-1.780;2023-05-18T02:11:29;6.45;;;2.17;;
65182;SDS011;51771;51.068;-1.780;2023-05-18T02:13:54;5.63;;;2.20;;
65182;SDS011;51771;51.068;-1.780;2023-05-18T02:16:20;4.78;;;1.70;;
65182;SDS011;51771;51.068;-1.780;2023-05-18T02:18:45;5.93;;;2.13;;
65182;SDS011;51771;51.068;-1.780;2023-05-18T02:21:10;10.00;;;2.05;;
65182;SDS011;51771;51.068;-1.780;2023-05-18T02:23:37;6.22;;;2.03;;
65182;SDS011;51771;51.068;-1.780;2023-05-18T02:26:02;5.18;;;2.17;;
65182;SDS011;51771;51.068;-1.780;2023-05-18T02:28:28;5.33;;;1.80;;
65182;SDS011;51771;51.068;-1.780;2023-05-18T02:30:53;3.47;;;1.50;;
65182;SDS011;51771;51.068;-1.780;2023-05-18T02:33:18;10.27;;;2.30;;
65182;SDS011;51771;51.068;-1.780;2023-05-18T02:35:50;6.18;;;3.08;;
65182;SDS011;51771;51.068;-1.780;2023-05-18T02:38:16;5.75;;;1.60;;
65182;SDS011;51771;51.068;-1.780;2023-05-18T02:40:41;5.53;;;2.10;;
65182;SDS011;51771;51.068;-1.780;2023-05-18T02:43:06;6.18;;;2.33;;
65182;SDS011;51771;51.068;-1.780;2023-05-18T02:45:32;6.10;;;2.33;;
65182;SDS011;51771;51.068;-1.780;2023-05-18T02:47:57;5.30;;;2.27;;
65182;SDS011;51771;51.068;-1.780;2023-05-18T02:50:22;7.10;;;2.00;;
65182;SDS011;51771;51.068;-1.780;2023-05-18T02:52:47;8.10;;;2.20;;
65182;SDS011;51771;51.068;-1.780;2023-05-18T02:55:14;7.88;;;2.55;;
65182;SDS011;51771;51.068;-1.780;2023-05-18T02:57:39;5.70;;;2.05;;
65182;SDS011;51771;51.068;-1.780;2023-05-18T03:00:10;5.60;;;2.28;;
65182;SDS011;51771;51.068;-1.780;2023-05-18T03:02:36;6.93;;;2.20;;
65182;SDS011;51771;51.068;-1.780;2023-05-18T03:05:02;5.35;;;1.90;;
65182;SDS011;51771;51.068;-1.780;2023-05-18T03:07:29;4.75;;;2.38;;
65182;SDS011;51771;51.068;-1.780;2023-05-18T03:09:57;7.43;;;1.85;;
65182;SDS011;51771;51.068;-1.780;2023-05-18T03:12:22;4.18;;;1.63;;
65182;SDS011;51771;51.068;-1.780;2023-05-18T03:14:47;6.60;;;2.43;;
65182;SDS011;51771;51.068;-1.780;2023-05-18T03:17:12;7.67;;;2.23;;
65182;SDS011;51771;51.068;-1.780;2023-05-18T03:19:37;5.40;;;1.80;;
65182;SDS011;51771;51.068;-1.780;2023-05-18T03:22:03;6.10;;;2.23;;
65182;SDS011;51771;51.068;-1.780;2023-05-18T03:24:29;4.70;;;1.80;;
65182;SDS011;51771;51.068;-1.780;2023-05-18T03:27:04;4.63;;;1.70;;
65182;SDS011;51771;51.068;-1.780;2023-05-18T03:29:29;5.25;;;1.80;;
65182;SDS011;51771;51.068;-1.780;2023-05-18T03:31:54;5.00;;;1.70;;
65182;SDS011;51771;51.068;-1.780;2023-05-18T03:34:19;4.13;;;1.85;;
65182;SDS011;51771;51.068;-1.780;2023-05-18T03:36:45;4.00;;;1.60;;
65182;SDS011;51771;51.068;-1.780;2023-05-18T03:39:11;4.78;;;1.90;;
65182;SDS011;51771;51.068;-1.780;2023-05-18T03:41:37;6.18;;;1.90;;
65182;SDS011;51771;51.068;-1.780;2023-05-18T03:44:02;6.18;;;2.60;;
65182;SDS011;51771;51.068;-1.780;2023-05-18T03:46:27;3.67;;;1.87;;
65182;SDS011;51771;51.068;-1.780;2023-05-18T03:48:52;5.33;;;1.63;;
65182;SDS011;51771;51.068;-1.780;2023-05-18T03:51:21;6.35;;;2.40;;
65182;SDS011;51771;51.068;-1.780;2023-05-18T03:53:46;4.65;;;1.75;;
65182;SDS011;51771;51.068;-1.780;2023-05-18T03:56:12;5.38;;;1.70;;
65182;SDS011;51771;51.068;-1.780;2023-05-18T03:58:38;5.18;;;1.55;;
65182;SDS011;51771;51.068;-1.780;2023-05-18T04:01:03;7.47;;;1.75;;
65182;SDS011;51771;51.068;-1.780;2023-05-18T04:03:28;9.75;;;2.40;;
65182;SDS011;51771;51.068;-1.780;2023-05-18T04:05:54;8.48;;;2.35;;
65182;SDS011;51771;51.068;-1.780;2023-05-18T04:08:20;4.95;;;1.85;;
65182;SDS011;51771;51.068;-1.780;2023-05-18T04:10:49;5.53;;;1.80;;
65182;SDS011;51771;51.068;-1.780;2023-05-18T04:13:14;4.53;;;1.80;;
65182;SDS011;51771;51.068;-1.780;2023-05-18T04:15:40;6.93;;;2.00;;
65182;SDS011;51771;51.068;-1.780;2023-05-18T04:18:05;4.28;;;1.63;;
65182;SDS011;51771;51.068;-1.780;2023-05-18T04:20:30;8.13;;;2.58;;
65182;SDS011;51771;51.068;-1.780;2023-05-18T04:22:55;6.40;;;1.55;;
65182;SDS011;51771;51.068;-1.780;2023-05-18T04:25:24;4.05;;;1.80;;
65182;SDS011;51771;51.068;-1.780;2023-05-18T04:27:52;4.05;;;1.92;;
65182;SDS011;51771;51.068;-1.780;2023-05-18T04:30:18;8.13;;;2.80;;
65182;SDS011;51771;51.068;-1.780;2023-05-18T04:32:46;4.63;;;2.03;;
65182;SDS011;51771;51.068;-1.780;2023-05-18T04:35:11;4.85;;;1.77;;
65182;SDS011;51771;51.068;-1.780;2023-05-18T04:37:37;7.83;;;1.87;;
65182;SDS011;51771;51.068;-1.780;2023-05-18T04:40:05;6.15;;;1.88;;
65182;SDS011;51771;51.068;-1.780;2023-05-18T04:42:31;8.88;;;1.70;;
65182;SDS011;51771;51.068;-1.780;2023-05-18T04:44:58;7.28;;;2.70;;
65182;SDS011;51771;51.068;-1.780;2023-05-18T04:47:24;4.68;;;2.35;;
65182;SDS011;51771;51.068;-1.780;2023-05-18T04:49:49;6.27;;;1.90;;
65182;SDS011;51771;51.068;-1.780;2023-05-18T04:52:16;6.72;;;2.10;;
65182;SDS011;51771;51.068;-1.780;2023-05-18T04:54:41;5.78;;;2.45;;
65182;SDS011;51771;51.068;-1.780;2023-05-18T04:57:07;4.85;;;1.92;;
65182;SDS011;51771;51.068;-1.780;2023-05-18T04:59:32;6.63;;;2.20;;
65182;SDS011;51771;51.068;-1.780;2023-05-18T05:02:01;2.92;;;1.25;;
65182;SDS011;51771;51.068;-1.780;2023-05-18T05:04:26;5.40;;;2.65;;
65182;SDS011;51771;51.068;-1.780;2023-05-18T05:06:51;10.00;;;2.53;;
65182;SDS011;51771;51.068;-1.780;2023-05-18T05:09:17;4.93;;;2.00;;
65182;SDS011;51771;51.068;-1.780;2023-05-18T05:11:42;3.70;;;1.57;;
65182;SDS011;51771;51.068;-1.780;2023-05-18T05:14:07;4.80;;;1.83;;
65182;SDS011;51771;51.068;-1.780;2023-05-18T05:16:33;6.00;;;1.70;;
65182;SDS011;51771;51.068;-1.780;2023-05-18T05:18:58;3.58;;;1.58;;
65182;SDS011;51771;51.068;-1.780;2023-05-18T05:21:24;5.28;;;2.00;;
65182;SDS011;51771;51.068;-1.780;2023-05-18T05:23:49;4.10;;;2.10;;
65182;SDS011;51771;51.068;-1.780;2023-05-18T05:26:15;7.60;;;2.08;;
65182;SDS011;51771;51.068;-1.780;2023-05-18T05:28:40;7.13;;;2.42;;
65182;SDS011;51771;51.068;-1.780;2023-05-18T05:31:05;7.05;;;1.98;;
65182;SDS011;51771;51.068;-1.780;2023-05-18T05:33:31;5.78;;;1.80;;
65182;SDS011;51771;51.068;-1.780;2023-05-18T05:35:57;6.40;;;2.40;;
65182;SDS011;51771;51.068;-1.780;2023-05-18T05:38:22;4.33;;;1.57;;
65182;SDS011;51771;51.068;-1.780;2023-05-18T05:40:47;6.43;;;2.50;;
65182;SDS011;51771;51.068;-1.780;2023-05-18T05:43:12;6.13;;;1.95;;
65182;SDS011;51771;51.068;-1.780;2023-05-18T05:45:37;3.38;;;1.60;;
65182;SDS011;51771;51.068;-1.780;2023-05-18T05:48:03;11.13;;;1.92;;
65182;SDS011;51771;51.068;-1.780;2023-05-18T05:50:28;5.45;;;2.20;;
65182;SDS011;51771;51.068;-1.780;2023-05-18T05:52:54;5.50;;;2.45;;
65182;SDS011;51771;51.068;-1.780;2023-05-18T05:55:19;5.13;;;1.97;;
65182;SDS011;51771;51.068;-1.780;2023-05-18T05:57:44;6.38;;;2.15;;
65182;SDS011;51771;51.068;-1.780;2023-05-18T06:00:10;6.00;;;2.33;;
65182;SDS011;51771;51.068;-1.780;2023-05-18T06:02:36;6.25;;;2.65;;
65182;SDS011;51771;51.068;-1.780;2023-05-18T06:05:01;6.57;;;2.55;;
65182;SDS011;51771;51.068;-1.780;2023-05-18T06:07:26;7.10;;;2.63;;
65182;SDS011;51771;51.068;-1.780;2023-05-18T06:09:52;5.28;;;2.63;;
65182;SDS011;51771;51.068;-1.780;2023-05-18T06:12:17;5.93;;;2.57;;
65182;SDS011;51771;51.068;-1.780;2023-05-18T06:14:42;7.80;;;2.80;;
65182;SDS011;51771;51.068;-1.780;2023-05-18T06:17:07;7.30;;;3.10;;
65182;SDS011;51771;51.068;-1.780;2023-05-18T06:19:32;6.87;;;2.53;;
65182;SDS011;51771;51.068;-1.780;2023-05-18T06:21:58;7.88;;;2.30;;
65182;SDS011;51771;51.068;-1.780;2023-05-18T06:24:23;5.63;;;2.30;;
65182;SDS011;51771;51.068;-1.780;2023-05-18T06:26:49;7.75;;;2.70;;
65182;SDS011;51771;51.068;-1.780;2023-05-18T06:29:14;9.70;;;3.17;;
65182;SDS011;51771;51.068;-1.780;2023-05-18T06:31:40;8.17;;;2.67;;
65182;SDS011;51771;51.068;-1.780;2023-05-18T06:34:05;10.57;;;2.95;;
65182;SDS011;51771;51.068;-1.780;2023-05-18T06:36:30;6.60;;;2.60;;
65182;SDS011;51771;51.068;-1.780;2023-05-18T06:38:55;6.47;;;2.80;;
65182;SDS011;51771;51.068;-1.780;2023-05-18T06:41:21;7.82;;;3.17;;
65182;SDS011;51771;51.068;-1.780;2023-05-18T06:43:47;8.38;;;2.80;;
65182;SDS011;51771;51.068;-1.780;2023-05-18T06:46:21;10.80;;;3.83;;
65182;SDS011;51771;51.068;-1.780;2023-05-18T06:48:47;10.25;;;3.33;;
65182;SDS011;51771;51.068;-1.780;2023-05-18T06:51:12;10.52;;;3.72;;
65182;SDS011;51771;51.068;-1.780;2023-05-18T06:53:40;9.15;;;3.00;;
65182;SDS011;51771;51.068;-1.780;2023-05-18T06:56:05;7.68;;;2.85;;
65182;SDS011;51771;51.068;-1.780;2023-05-18T06:58:30;8.73;;;3.15;;
65182;SDS011;51771;51.068;-1.780;2023-05-18T07:00:56;6.35;;;2.90;;
65182;SDS011;51771;51.068;-1.780;2023-05-18T07:03:25;6.50;;;2.38;;
65182;SDS011;51771;51.068;-1.780;2023-05-18T07:05:57;8.88;;;3.30;;
65182;SDS011;51771;51.068;-1.780;2023-05-18T07:08:22;6.95;;;2.42;;
65182;SDS011;51771;51.068;-1.780;2023-05-18T07:10:48;8.20;;;2.42;;
65182;SDS011;51771;51.068;-1.780;2023-05-18T07:13:14;8.70;;;2.85;;
65182;SDS011;51771;51.068;-1.780;2023-05-18T07:15:39;6.13;;;2.50;;
65182;SDS011;51771;51.068;-1.780;2023-05-18T07:18:04;7.03;;;2.72;;
65182;SDS011;51771;51.068;-1.780;2023-05-18T07:20:30;10.18;;;2.45;;
65182;SDS011;51771;51.068;-1.780;2023-05-18T07:22:55;6.63;;;2.25;;
65182;SDS011;51771;51.068;-1.780;2023-05-18T07:25:21;5.03;;;2.38;;
65182;SDS011;51771;51.068;-1.780;2023-05-18T07:27:46;6.20;;;2.60;;
65182;SDS011;51771;51.068;-1.780;2023-05-18T07:30:11;8.40;;;2.80;;
65182;SDS011;51771;51.068;-1.780;2023-05-18T07:32:36;7.28;;;2.80;;
65182;SDS011;51771;51.068;-1.780;2023-05-18T07:35:02;7.67;;;3.00;;
65182;SDS011;51771;51.068;-1.780;2023-05-18T07:37:27;6.65;;;2.72;;
65182;SDS011;51771;51.068;-1.780;2023-05-18T07:39:52;8.85;;;3.40;;
65182;SDS011;51771;51.068;-1.780;2023-05-18T07:42:17;6.22;;;3.08;;
65182;SDS011;51771;51.068;-1.780;2023-05-18T07:44:43;7.18;;;2.65;;
65182;SDS011;51771;51.068;-1.780;2023-05-18T07:47:08;8.02;;;3.38;;
65182;SDS011;51771;51.068;-1.780;2023-05-18T07:49:33;7.53;;;3.08;;
65182;SDS011;51771;51.068;-1.780;2023-05-18T07:51:58;6.70;;;2.80;;
65182;SDS011;51771;51.068;-1.780;2023-05-18T07:54:26;10.50;;;3.30;;
65182;SDS011;51771;51.068;-1.780;2023-05-18T07:56:51;7.25;;;2.92;;
65182;SDS011;51771;51.068;-1.780;2023-05-18T07:59:16;6.57;;;2.60;;
65182;SDS011;51771;51.068;-1.780;2023-05-18T08:01:41;9.83;;;3.00;;
65182;SDS011;51771;51.068;-1.780;2023-05-18T08:04:08;6.38;;;2.88;;
65182;SDS011;51771;51.068;-1.780;2023-05-18T08:06:34;8.10;;;2.90;;
65182;SDS011;51771;51.068;-1.780;2023-05-18T08:08:59;8.67;;;2.90;;
65182;SDS011;51771;51.068;-1.780;2023-05-18T08:11:24;8.98;;;3.38;;
65182;SDS011;51771;51.068;-1.780;2023-05-18T08:13:50;9.10;;;3.20;;
65182;SDS011;51771;51.068;-1.780;2023-05-18T08:16:15;8.17;;;3.20;;
65182;SDS011;51771;51.068;-1.780;2023-05-18T08:18:40;7.63;;;3.37;;
65182;SDS011;51771;51.068;-1.780;2023-05-18T08:21:06;9.25;;;3.00;;
65182;SDS011;51771;51.068;-1.780;2023-05-18T08:23:34;12.23;;;3.42;;
65182;SDS011;51771;51.068;-1.780;2023-05-18T08:26:00;7.38;;;3.13;;
65182;SDS011;51771;51.068;-1.780;2023-05-18T08:28:27;8.60;;;4.30;;
65182;SDS011;51771;51.068;-1.780;2023-05-18T08:30:52;7.67;;;3.20;;
65182;SDS011;51771;51.068;-1.780;2023-05-18T08:33:17;8.83;;;3.03;;
65182;SDS011;51771;51.068;-1.780;2023-05-18T08:35:42;8.57;;;3.47;;
65182;SDS011;51771;51.068;-1.780;2023-05-18T08:38:08;7.90;;;3.37;;
65182;SDS011;51771;51.068;-1.780;2023-05-18T08:40:36;7.90;;;3.60;;
65182;SDS011;51771;51.068;-1.780;2023-05-18T08:45:40;7.53;;;3.30;;
65182;SDS011;51771;51.068;-1.780;2023-05-18T08:48:08;5.97;;;3.40;;
65182;SDS011;51771;51.068;-1.780;2023-05-18T08:53:01;8.63;;;3.20;;
65182;SDS011;51771;51.068;-1.780;2023-05-18T08:55:28;8.10;;;3.75;;
65182;SDS011;51771;51.068;-1.780;2023-05-18T08:57:54;6.50;;;3.13;;
65182;SDS011;51771;51.068;-1.780;2023-05-18T09:00:20;8.25;;;3.58;;
65182;SDS011;51771;51.068;-1.780;2023-05-18T09:02:46;7.13;;;3.17;;
65182;SDS011;51771;51.068;-1.780;2023-05-18T09:05:12;10.05;;;3.97;;
65182;SDS011;51771;51.068;-1.780;2023-05-18T09:07:38;8.60;;;3.40;;
65182;SDS011;51771;51.068;-1.780;2023-05-18T09:10:05;8.60;;;3.53;;
65182;SDS011;51771;51.068;-1.780;2023-05-18T09:12:31;9.02;;;3.20;;
65182;SDS011;51771;51.068;-1.780;2023-05-18T09:14:57;7.00;;;2.75;;
65182;SDS011;51771;51.068;-1.780;2023-05-18T09:17:24;8.20;;;3.05;;
65182;SDS011;51771;51.068;-1.780;2023-05-18T09:19:50;7.57;;;3.00;;
65182;SDS011;51771;51.068;-1.780;2023-05-18T09:22:15;9.93;;;2.70;;
65182;SDS011;51771;51.068;-1.780;2023-05-18T09:24:40;7.15;;;3.20;;
65182;SDS011;51771;51.068;-1.780;2023-05-18T09:27:05;8.03;;;2.57;;
65182;SDS011;51771;51.068;-1.780;2023-05-18T09:29:31;7.03;;;2.77;;
65182;SDS011;51771;51.068;-1.780;2023-05-18T09:31:56;8.30;;;2.23;;
65182;SDS011;51771;51.068;-1.780;2023-05-18T09:34:25;6.72;;;2.63;;
65182;SDS011;51771;51.068;-1.780;2023-05-18T09:37:02;6.25;;;2.78;;
65182;SDS011;51771;51.068;-1.780;2023-05-18T09:39:28;6.93;;;3.10;;
65182;SDS011;51771;51.068;-1.780;2023-05-18T09:41:54;8.50;;;2.90;;
65182;SDS011;51771;51.068;-1.780;2023-05-18T09:44:27;8.13;;;2.63;;
65182;SDS011;51771;51.068;-1.780;2023-05-18T09:46:55;6.80;;;2.42;;
65182;SDS011;51771;51.068;-1.780;2023-05-18T09:49:20;8.60;;;2.58;;
65182;SDS011;51771;51.068;-1.780;2023-05-18T09:51:46;9.25;;;2.40;;
65182;SDS011;51771;51.068;-1.780;2023-05-18T09:54:12;6.00;;;2.30;;
65182;SDS011;51771;51.068;-1.780;2023-05-18T09:56:37;6.03;;;2.20;;
65182;SDS011;51771;51.068;-1.780;2023-05-18T09:59:12;5.88;;;2.30;;
65182;SDS011;51771;51.068;-1.780;2023-05-18T10:01:57;6.85;;;2.50;;
65182;SDS011;51771;51.068;-1.780;2023-05-18T10:04:34;5.85;;;2.53;;
65182;SDS011;51771;51.068;-1.780;2023-05-18T10:07:00;5.47;;;2.40;;
65182;SDS011;51771;51.068;-1.780;2023-05-18T10:09:26;5.68;;;2.15;;
65182;SDS011;51771;51.068;-1.780;2023-05-18T10:11:51;4.70;;;1.70;;
65182;SDS011;51771;51.068;-1.780;2023-05-18T10:14:16;5.33;;;1.93;;
65182;SDS011;51771;51.068;-1.780;2023-05-18T10:16:41;4.13;;;1.83;;
65182;SDS011;51771;51.068;-1.780;2023-05-18T10:19:08;6.05;;;1.95;;
65182;SDS011;51771;51.068;-1.780;2023-05-18T10:21:34;5.00;;;1.70;;
65182;SDS011;51771;51.068;-1.780;2023-05-18T10:24:01;4.40;;;1.65;;
65182;SDS011;51771;51.068;-1.780;2023-05-18T10:26:27;5.50;;;1.63;;
65182;SDS011;51771;51.068;-1.780;2023-05-18T10:28:54;5.85;;;2.00;;
65182;SDS011;51771;51.068;-1.780;2023-05-18T10:31:21;4.47;;;1.88;;
65182;SDS011;51771;51.068;-1.780;2023-05-18T10:33:47;5.57;;;1.83;;
65182;SDS011;51771;51.068;-1.780;2023-05-18T10:36:14;6.20;;;2.47;;
65182;SDS011;51771;51.068;-1.780;2023-05-18T10:38:41;4.90;;;1.63;;
65182;SDS011;51771;51.068;-1.780;2023-05-18T10:41:09;5.43;;;1.88;;
65182;SDS011;51771;51.068;-1.780;2023-05-18T10:43:35;4.82;;;1.73;;
65182;SDS011;51771;51.068;-1.780;2023-05-18T10:46:00;4.82;;;1.92;;
65182;SDS011;51771;51.068;-1.780;2023-05-18T10:48:26;7.35;;;2.30;;
65182;SDS011;51771;51.068;-1.780;2023-05-18T10:50:52;3.85;;;1.52;;
65182;SDS011;51771;51.068;-1.780;2023-05-18T10:53:19;3.20;;;1.40;;
65182;SDS011;51771;51.068;-1.780;2023-05-18T10:55:45;5.28;;;1.48;;
65182;SDS011;51771;51.068;-1.780;2023-05-18T10:58:11;4.70;;;1.48;;
65182;SDS011;51771;51.068;-1.780;2023-05-18T11:00:38;4.63;;;1.70;;
65182;SDS011;51771;51.068;-1.780;2023-05-18T11:03:06;4.72;;;1.63;;
65182;SDS011;51771;51.068;-1.780;2023-05-18T11:05:32;6.03;;;1.95;;
65182;SDS011;51771;51.068;-1.780;2023-05-18T11:07:58;4.73;;;1.53;;
65182;SDS011;51771;51.068;-1.780;2023-05-18T11:10:23;4.97;;;1.73;;
65182;SDS011;51771;51.068;-1.780;2023-05-18T11:12:58;4.70;;;1.80;;
65182;SDS011;51771;51.068;-1.780;2023-05-18T11:15:38;6.20;;;1.65;;
65182;SDS011;51771;51.068;-1.780;2023-05-18T11:18:12;4.80;;;1.67;;
65182;SDS011;51771;51.068;-1.780;2023-05-18T11:20:37;5.35;;;1.60;;
65182;SDS011;51771;51.068;-1.780;2023-05-18T11:23:05;3.70;;;1.50;;
65182;SDS011;51771;51.068;-1.780;2023-05-18T11:28:06;5.83;;;1.60;;
65182;SDS011;51771;51.068;-1.780;2023-05-18T11:35:31;5.07;;;1.77;;
65182;SDS011;51771;51.068;-1.780;2023-05-18T11:38:07;5.68;;;1.85;;
65182;SDS011;51771;51.068;-1.780;2023-05-18T11:40:49;5.00;;;1.40;;
65182;SDS011;51771;51.068;-1.780;2023-05-18T11:43:24;4.15;;;1.80;;
65182;SDS011;51771;51.068;-1.780;2023-05-18T11:45:59;4.15;;;1.63;;
65182;SDS011;51771;51.068;-1.780;2023-05-18T11:48:24;6.28;;;1.40;;
65182;SDS011;51771;51.068;-1.780;2023-05-18T11:50:53;5.20;;;1.60;;
65182;SDS011;51771;51.068;-1.780;2023-05-18T11:53:18;4.95;;;1.80;;
65182;SDS011;51771;51.068;-1.780;2023-05-18T11:55:46;4.90;;;1.80;;
65182;SDS011;51771;51.068;-1.780;2023-05-18T11:58:11;5.20;;;1.70;;
65182;SDS011;51771;51.068;-1.780;2023-05-18T12:00:42;5.40;;;1.95;;
65182;SDS011;51771;51.068;-1.780;2023-05-18T12:03:08;5.32;;;1.63;;
65182;SDS011;51771;51.068;-1.780;2023-05-18T12:05:34;4.20;;;1.50;;
65182;SDS011;51771;51.068;-1.780;2023-05-18T12:08:00;5.78;;;1.95;;
65182;SDS011;51771;51.068;-1.780;2023-05-18T12:10:25;5.63;;;1.55;;
65182;SDS011;51771;51.068;-1.780;2023-05-18T12:12:51;3.58;;;1.52;;
65182;SDS011;51771;51.068;-1.780;2023-05-18T12:15:19;4.50;;;1.58;;
65182;SDS011;51771;51.068;-1.780;2023-05-18T12:17:48;4.85;;;1.75;;
65182;SDS011;51771;51.068;-1.780;2023-05-18T12:20:15;5.03;;;1.83;;
65182;SDS011;51771;51.068;-1.780;2023-05-18T12:22:41;5.40;;;2.42;;
65182;SDS011;51771;51.068;-1.780;2023-05-18T12:25:10;6.88;;;2.13;;
65182;SDS011;51771;51.068;-1.780;2023-05-18T12:27:36;6.25;;;2.00;;
65182;SDS011;51771;51.068;-1.780;2023-05-18T12:30:02;5.30;;;1.40;;
65182;SDS011;51771;51.068;-1.780;2023-05-18T12:32:28;3.95;;;1.70;;
65182;SDS011;51771;51.068;-1.780;2023-05-18T12:34:54;4.55;;;2.03;;
65182;SDS011;51771;51.068;-1.780;2023-05-18T12:37:22;5.80;;;1.70;;
65182;SDS011;51771;51.068;-1.780;2023-05-18T12:39:50;4.38;;;1.65;;
65182;SDS011;51771;51.068;-1.780;2023-05-18T12:42:16;7.53;;;1.77;;
65182;SDS011;51771;51.068;-1.780;2023-05-18T12:44:47;4.78;;;1.77;;
65182;SDS011;51771;51.068;-1.780;2023-05-18T12:47:14;4.45;;;1.90;;
65182;SDS011;51771;51.068;-1.780;2023-05-18T12:49:41;4.35;;;1.65;;
65182;SDS011;51771;51.068;-1.780;2023-05-18T12:52:07;4.07;;;1.80;;
65182;SDS011;51771;51.068;-1.780;2023-05-18T12:54:33;4.35;;;1.63;;
65182;SDS011;51771;51.068;-1.780;2023-05-18T12:57:03;5.97;;;2.00;;
65182;SDS011;51771;51.068;-1.780;2023-05-18T12:59:30;6.85;;;1.75;;
65182;SDS011;51771;51.068;-1.780;2023-05-18T13:01:55;4.45;;;1.80;;
65182;SDS011;51771;51.068;-1.780;2023-05-18T13:04:21;5.40;;;1.70;;
65182;SDS011;51771;51.068;-1.780;2023-05-18T13:06:46;5.68;;;1.63;;
65182;SDS011;51771;51.068;-1.780;2023-05-18T13:09:13;5.25;;;1.60;;
65182;SDS011;51771;51.068;-1.780;2023-05-18T13:11:38;5.43;;;1.88;;
65182;SDS011;51771;51.068;-1.780;2023-05-18T13:14:04;3.85;;;1.42;;
65182;SDS011;51771;51.068;-1.780;2023-05-18T13:16:31;5.82;;;1.58;;
65182;SDS011;51771;51.068;-1.780;2023-05-18T13:19:00;3.83;;;1.38;;
65182;SDS011;51771;51.068;-1.780;2023-05-18T13:21:25;5.28;;;1.67;;
65182;SDS011;51771;51.068;-1.780;2023-05-18T13:23:51;3.92;;;1.52;;
65182;SDS011;51771;51.068;-1.780;2023-05-18T13:26:16;6.30;;;2.22;;
65182;SDS011;51771;51.068;-1.780;2023-05-18T13:28:43;3.70;;;1.05;;
65182;SDS011;51771;51.068;-1.780;2023-05-18T13:31:08;4.68;;;1.80;;
65182;SDS011;51771;51.068;-1.780;2023-05-18T13:33:34;3.90;;;1.50;;
65182;SDS011;51771;51.068;-1.780;2023-05-18T13:35:59;4.15;;;1.88;;
65182;SDS011;51771;51.068;-1.780;2023-05-18T13:38:25;5.40;;;1.70;;
65182;SDS011;51771;51.068;-1.780;2023-05-18T13:40:50;6.97;;;2.00;;
65182;SDS011;51771;51.068;-1.780;2023-05-18T13:43:15;5.03;;;1.60;;
65182;SDS011;51771;51.068;-1.780;2023-05-18T13:45:40;4.53;;;1.53;;
65182;SDS011;51771;51.068;-1.780;2023-05-18T13:48:06;4.50;;;1.42;;
65182;SDS011;51771;51.068;-1.780;2023-05-18T13:50:33;5.50;;;1.92;;
65182;SDS011;51771;51.068;-1.780;2023-05-18T13:52:58;5.22;;;1.83;;
65182;SDS011;51771;51.068;-1.780;2023-05-18T13:55:23;5.43;;;1.83;;
65182;SDS011;51771;51.068;-1.780;2023-05-18T13:57:48;4.90;;;1.60;;
65182;SDS011;51771;51.068;-1.780;2023-05-18T14:00:14;5.45;;;2.15;;
65182;SDS011;51771;51.068;-1.780;2023-05-18T14:02:41;3.65;;;1.40;;
65182;SDS011;51771;51.068;-1.780;2023-05-18T14:05:07;5.65;;;1.65;;
65182;SDS011;51771;51.068;-1.780;2023-05-18T14:07:35;3.90;;;1.63;;
65182;SDS011;51771;51.068;-1.780;2023-05-18T14:10:01;4.25;;;1.63;;
65182;SDS011;51771;51.068;-1.780;2023-05-18T14:12:26;4.70;;;1.42;;
65182;SDS011;51771;51.068;-1.780;2023-05-18T14:14:52;3.90;;;1.67;;
65182;SDS011;51771;51.068;-1.780;2023-05-18T14:17:17;6.17;;;1.97;;
65182;SDS011;51771;51.068;-1.780;2023-05-18T14:19:42;3.72;;;1.45;;
65182;SDS011;51771;51.068;-1.780;2023-05-18T14:22:07;4.43;;;1.50;;
65182;SDS011;51771;51.068;-1.780;2023-05-18T14:24:33;4.07;;;1.60;;
65182;SDS011;51771;51.068;-1.780;2023-05-18T14:26:58;4.57;;;1.80;;
65182;SDS011;51771;51.068;-1.780;2023-05-18T14:29:23;3.60;;;1.40;;
65182;SDS011;51771;51.068;-1.780;2023-05-18T14:31:48;4.47;;;1.63;;
65182;SDS011;51771;51.068;-1.780;2023-05-18T14:34:13;6.10;;;1.70;;
65182;SDS011;51771;51.068;-1.780;2023-05-18T14:36:39;5.68;;;1.58;;
65182;SDS011;51771;51.068;-1.780;2023-05-18T14:39:04;5.63;;;1.83;;
65182;SDS011;51771;51.068;-1.780;2023-05-18T14:41:30;4.47;;;1.60;;
65182;SDS011;51771;51.068;-1.780;2023-05-18T14:43:55;4.57;;;1.77;;
65182;SDS011;51771;51.068;-1.780;2023-05-18T14:46:20;5.37;;;1.40;;
65182;SDS011;51771;51.068;-1.780;2023-05-18T14:48:46;4.90;;;2.08;;
65182;SDS011;51771;51.068;-1.780;2023-05-18T14:51:11;3.83;;;1.23;;
65182;SDS011;51771;51.068;-1.780;2023-05-18T14:53:37;4.20;;;1.75;;
65182;SDS011;51771;51.068;-1.780;2023-05-18T14:56:02;4.30;;;1.50;;